sensor_id;sensor_type;location;lat;lon;timestamp;temperature;humidity
26821;DHT22;37186;51.394;5.454;2023-01-15T00:01:32;10.20;87.50
26821;DHT22;37186;51.394;5.454;2023-01-15T00:04:36;10.20;87.30
26821;DHT22;37186;51.394;5.454;2023-01-15T00:07:36;10.20;87.60
26821;DHT22;37186;51.394;5.454;2023-01-15T00:10:37;10.20;87.10
26821;DHT22;37186;51.394;5.454;2023-01-15T00:13:38;10.10;87.20
26821;DHT22;37186;51.394;5.454;2023-01-15T00:16:38;10.10;87.00
26821;DHT22;37186;51.394;5.454;2023-01-15T00:19:40;10.10;87.20
26821;DHT22;37186;51.394;5.454;2023-01-15T00:22:40;10.10;87.20
26821;DHT22;37186;51.394;5.454;2023-01-15T00:25:41;10.10;87.40
26821;DHT22;37186;51.394;5.454;2023-01-15T00:29:00;10.00;87.30
26821;DHT22;37186;51.394;5.454;2023-01-15T00:32:03;10.00;87.00
26821;DHT22;37186;51.394;5.454;2023-01-15T00:35:05;10.00;86.90
26821;DHT22;37186;51.394;5.454;2023-01-15T00:38:05;10.00;87.00
26821;DHT22;37186;51.394;5.454;2023-01-15T00:41:06;10.00;87.00
26821;DHT22;37186;51.394;5.454;2023-01-15T00:44:06;10.00;87.20
26821;DHT22;37186;51.394;5.454;2023-01-15T00:47:07;10.00;87.20
26821;DHT22;37186;51.394;5.454;2023-01-15T00:50:14;10.00;87.00
26821;DHT22;37186;51.394;5.454;2023-01-15T00:53:14;10.00;87.10
26821;DHT22;37186;51.394;5.454;2023-01-15T00:56:15;9.90;86.90
26821;DHT22;37186;51.394;5.454;2023-01-15T00:59:15;9.90;86.90
26821;DHT22;37186;51.394;5.454;2023-01-15T01:02:16;9.90;87.00
26821;DHT22;37186;51.394;5.454;2023-01-15T01:05:17;9.90;86.60
26821;DHT22;37186;51.394;5.454;2023-01-15T01:08:17;9.90;86.70
26821;DHT22;37186;51.394;5.454;2023-01-15T01:11:20;9.90;86.90
26821;DHT22;37186;51.394;5.454;2023-01-15T01:14:23;9.90;86.90
26821;DHT22;37186;51.394;5.454;2023-01-15T01:17:23;9.80;86.90
26821;DHT22;37186;51.394;5.454;2023-01-15T01:20:24;9.80;86.70
26821;DHT22;37186;51.394;5.454;2023-01-15T01:23:26;9.80;86.70
26821;DHT22;37186;51.394;5.454;2023-01-15T01:26:28;9.80;86.90
26821;DHT22;37186;51.394;5.454;2023-01-15T01:29:28;9.80;86.80
26821;DHT22;37186;51.394;5.454;2023-01-15T01:32:29;9.80;86.80
26821;DHT22;37186;51.394;5.454;2023-01-15T01:35:29;9.80;86.50
26821;DHT22;37186;51.394;5.454;2023-01-15T01:38:30;9.80;86.40
26821;DHT22;37186;51.394;5.454;2023-01-15T01:41:30;9.80;86.40
26821;DHT22;37186;51.394;5.454;2023-01-15T01:47:32;9.80;86.20
26821;DHT22;37186;51.394;5.454;2023-01-15T01:50:34;9.80;86.60
26821;DHT22;37186;51.394;5.454;2023-01-15T01:53:36;9.80;86.50
26821;DHT22;37186;51.394;5.454;2023-01-15T01:56:37;9.80;85.70
26821;DHT22;37186;51.394;5.454;2023-01-15T01:59:38;9.80;86.20
26821;DHT22;37186;51.394;5.454;2023-01-15T02:02:41;9.80;86.20
26821;DHT22;37186;51.394;5.454;2023-01-15T02:05:48;9.80;86.30
26821;DHT22;37186;51.394;5.454;2023-01-15T02:08:51;9.80;86.00
26821;DHT22;37186;51.394;5.454;2023-01-15T02:11:56;9.80;86.10
26821;DHT22;37186;51.394;5.454;2023-01-15T02:15:09;9.70;85.90
26821;DHT22;37186;51.394;5.454;2023-01-15T02:19:18;9.70;85.90
26821;DHT22;37186;51.394;5.454;2023-01-15T02:32:44;9.70;86.30
26821;DHT22;37186;51.394;5.454;2023-01-15T02:35:49;9.70;86.30
26821;DHT22;37186;51.394;5.454;2023-01-15T02:38:54;9.70;85.80
26821;DHT22;37186;51.394;5.454;2023-01-15T02:41:59;9.70;86.30
26821;DHT22;37186;51.394;5.454;2023-01-15T02:45:02;9.70;86.00
26821;DHT22;37186;51.394;5.454;2023-01-15T02:48:10;9.70;85.90
26821;DHT22;37186;51.394;5.454;2023-01-15T02:51:18;9.70;86.10
26821;DHT22;37186;51.394;5.454;2023-01-15T02:54:22;9.70;85.50
26821;DHT22;37186;51.394;5.454;2023-01-15T02:57:26;9.70;85.90
26821;DHT22;37186;51.394;5.454;2023-01-15T03:00:30;9.60;86.00
26821;DHT22;37186;51.394;5.454;2023-01-15T03:03:54;9.60;85.90
26821;DHT22;37186;51.394;5.454;2023-01-15T03:07:15;9.60;85.90
26821;DHT22;37186;51.394;5.454;2023-01-15T03:10:18;9.60;86.00
26821;DHT22;37186;51.394;5.454;2023-01-15T03:16:53;9.60;85.60
26821;DHT22;37186;51.394;5.454;2023-01-15T03:19:58;9.60;85.90
26821;DHT22;37186;51.394;5.454;2023-01-15T03:23:07;9.60;85.60
26821;DHT22;37186;51.394;5.454;2023-01-15T03:26:09;9.60;85.60
26821;DHT22;37186;51.394;5.454;2023-01-15T03:29:11;9.60;85.40
26821;DHT22;37186;51.394;5.454;2023-01-15T03:32:12;9.60;85.50
26821;DHT22;37186;51.394;5.454;2023-01-15T03:35:46;9.60;85.50
26821;DHT22;37186;51.394;5.454;2023-01-15T03:38:48;9.50;85.40
26821;DHT22;37186;51.394;5.454;2023-01-15T03:42:09;9.50;85.40
26821;DHT22;37186;51.394;5.454;2023-01-15T03:45:21;9.50;85.40
26821;DHT22;37186;51.394;5.454;2023-01-15T03:48:32;9.50;85.50
26821;DHT22;37186;51.394;5.454;2023-01-15T03:51:39;9.50;85.30
26821;DHT22;37186;51.394;5.454;2023-01-15T03:55:34;9.50;85.30
26821;DHT22;37186;51.394;5.454;2023-01-15T03:58:41;9.50;85.50
26821;DHT22;37186;51.394;5.454;2023-01-15T04:01:44;9.50;85.30
26821;DHT22;37186;51.394;5.454;2023-01-15T04:04:46;9.40;84.90
26821;DHT22;37186;51.394;5.454;2023-01-15T04:07:49;9.40;85.20
26821;DHT22;37186;51.394;5.454;2023-01-15T04:10:52;9.50;85.30
26821;DHT22;37186;51.394;5.454;2023-01-15T04:13:53;9.40;85.50
26821;DHT22;37186;51.394;5.454;2023-01-15T04:16:53;9.40;85.00
26821;DHT22;37186;51.394;5.454;2023-01-15T04:19:54;9.40;85.20
26821;DHT22;37186;51.394;5.454;2023-01-15T04:22:54;9.40;85.10
26821;DHT22;37186;51.394;5.454;2023-01-15T04:25:55;9.40;85.20
26821;DHT22;37186;51.394;5.454;2023-01-15T04:28:56;9.40;85.30
26821;DHT22;37186;51.394;5.454;2023-01-15T04:31:56;9.40;85.40
26821;DHT22;37186;51.394;5.454;2023-01-15T04:34:57;9.40;85.40
26821;DHT22;37186;51.394;5.454;2023-01-15T04:37:58;9.40;84.70
26821;DHT22;37186;51.394;5.454;2023-01-15T04:41:03;9.40;84.70
26821;DHT22;37186;51.394;5.454;2023-01-15T04:44:22;9.40;85.90
26821;DHT22;37186;51.394;5.454;2023-01-15T04:47:29;9.40;85.10
26821;DHT22;37186;51.394;5.454;2023-01-15T04:50:29;9.30;84.90
26821;DHT22;37186;51.394;5.454;2023-01-15T04:53:32;9.40;85.10
26821;DHT22;37186;51.394;5.454;2023-01-15T04:56:41;9.40;85.10
26821;DHT22;37186;51.394;5.454;2023-01-15T04:59:42;9.40;84.90
26821;DHT22;37186;51.394;5.454;2023-01-15T05:02:42;9.40;85.20
26821;DHT22;37186;51.394;5.454;2023-01-15T05:05:43;9.40;84.80
26821;DHT22;37186;51.394;5.454;2023-01-15T05:08:44;9.30;84.80
26821;DHT22;37186;51.394;5.454;2023-01-15T05:11:44;9.30;84.70
26821;DHT22;37186;51.394;5.454;2023-01-15T05:14:45;9.30;84.70
26821;DHT22;37186;51.394;5.454;2023-01-15T05:17:45;9.30;84.60
26821;DHT22;37186;51.394;5.454;2023-01-15T05:20:46;9.30;84.90
26821;DHT22;37186;51.394;5.454;2023-01-15T05:23:48;9.30;84.50
26821;DHT22;37186;51.394;5.454;2023-01-15T05:26:49;9.30;84.70
26821;DHT22;37186;51.394;5.454;2023-01-15T05:29:49;9.20;84.80
26821;DHT22;37186;51.394;5.454;2023-01-15T05:32:50;9.30;84.80
26821;DHT22;37186;51.394;5.454;2023-01-15T05:35:51;9.30;84.70
26821;DHT22;37186;51.394;5.454;2023-01-15T05:38:53;9.30;84.70
26821;DHT22;37186;51.394;5.454;2023-01-15T05:41:53;9.30;84.80
26821;DHT22;37186;51.394;5.454;2023-01-15T05:44:54;9.20;85.00
26821;DHT22;37186;51.394;5.454;2023-01-15T05:47:54;9.20;84.90
26821;DHT22;37186;51.394;5.454;2023-01-15T05:50:55;9.30;85.00
26821;DHT22;37186;51.394;5.454;2023-01-15T05:53:56;9.20;85.00
26821;DHT22;37186;51.394;5.454;2023-01-15T05:56:57;9.20;84.90
26821;DHT22;37186;51.394;5.454;2023-01-15T05:59:58;9.20;84.90
26821;DHT22;37186;51.394;5.454;2023-01-15T06:02:58;9.20;85.00
26821;DHT22;37186;51.394;5.454;2023-01-15T06:05:59;9.20;84.80
26821;DHT22;37186;51.394;5.454;2023-01-15T06:09:00;9.20;84.70
26821;DHT22;37186;51.394;5.454;2023-01-15T06:12:01;9.20;84.80
26821;DHT22;37186;51.394;5.454;2023-01-15T06:15:01;9.20;84.80
26821;DHT22;37186;51.394;5.454;2023-01-15T06:18:02;9.20;84.80
26821;DHT22;37186;51.394;5.454;2023-01-15T06:21:08;9.10;84.70
26821;DHT22;37186;51.394;5.454;2023-01-15T06:24:09;9.10;84.70
26821;DHT22;37186;51.394;5.454;2023-01-15T06:27:10;9.10;84.60
26821;DHT22;37186;51.394;5.454;2023-01-15T06:30:11;9.10;84.10
26821;DHT22;37186;51.394;5.454;2023-01-15T06:33:11;9.10;84.70
26821;DHT22;37186;51.394;5.454;2023-01-15T06:36:14;9.10;84.40
26821;DHT22;37186;51.394;5.454;2023-01-15T06:39:15;9.10;84.40
26821;DHT22;37186;51.394;5.454;2023-01-15T06:42:16;9.10;84.30
26821;DHT22;37186;51.394;5.454;2023-01-15T06:45:39;9.10;84.40
26821;DHT22;37186;51.394;5.454;2023-01-15T06:48:58;9.00;83.80
26821;DHT22;37186;51.394;5.454;2023-01-15T06:51:59;9.00;84.50
26821;DHT22;37186;51.394;5.454;2023-01-15T06:55:00;9.00;84.10
26821;DHT22;37186;51.394;5.454;2023-01-15T06:58:02;9.00;84.20
26821;DHT22;37186;51.394;5.454;2023-01-15T07:01:07;9.00;84.40
26821;DHT22;37186;51.394;5.454;2023-01-15T07:04:08;9.00;84.40
26821;DHT22;37186;51.394;5.454;2023-01-15T07:07:08;9.00;84.20
26821;DHT22;37186;51.394;5.454;2023-01-15T07:10:09;9.00;84.10
26821;DHT22;37186;51.394;5.454;2023-01-15T07:13:10;9.00;84.20
26821;DHT22;37186;51.394;5.454;2023-01-15T07:16:11;9.00;84.30
26821;DHT22;37186;51.394;5.454;2023-01-15T07:19:26;8.90;84.50
26821;DHT22;37186;51.394;5.454;2023-01-15T07:22:27;8.90;84.00
26821;DHT22;37186;51.394;5.454;2023-01-15T07:25:27;8.90;84.30
26821;DHT22;37186;51.394;5.454;2023-01-15T07:28:28;8.90;84.00
26821;DHT22;37186;51.394;5.454;2023-01-15T07:31:28;8.90;83.70
26821;DHT22;37186;51.394;5.454;2023-01-15T07:34:29;8.90;84.00
26821;DHT22;37186;51.394;5.454;2023-01-15T07:37:29;8.90;84.10
26821;DHT22;37186;51.394;5.454;2023-01-15T07:40:30;8.90;84.00
26821;DHT22;37186;51.394;5.454;2023-01-15T07:43:30;8.90;83.20
26821;DHT22;37186;51.394;5.454;2023-01-15T07:46:50;8.90;83.70
26821;DHT22;37186;51.394;5.454;2023-01-15T07:50:11;8.80;83.60
26821;DHT22;37186;51.394;5.454;2023-01-15T07:53:12;8.80;83.50
26821;DHT22;37186;51.394;5.454;2023-01-15T07:56:13;8.80;83.70
26821;DHT22;37186;51.394;5.454;2023-01-15T07:59:14;8.70;83.60
26821;DHT22;37186;51.394;5.454;2023-01-15T08:02:14;8.80;83.40
26821;DHT22;37186;51.394;5.454;2023-01-15T08:05:16;8.80;83.10
26821;DHT22;37186;51.394;5.454;2023-01-15T08:08:17;8.70;83.10
26821;DHT22;37186;51.394;5.454;2023-01-15T08:11:18;8.70;83.00
26821;DHT22;37186;51.394;5.454;2023-01-15T08:14:37;8.70;83.10
26821;DHT22;37186;51.394;5.454;2023-01-15T08:17:56;8.60;83.20
26821;DHT22;37186;51.394;5.454;2023-01-15T08:20:57;8.60;83.10
26821;DHT22;37186;51.394;5.454;2023-01-15T08:23:57;8.60;82.80
26821;DHT22;37186;51.394;5.454;2023-01-15T08:26:58;8.60;83.10
26821;DHT22;37186;51.394;5.454;2023-01-15T08:29:58;8.60;83.20
26821;DHT22;37186;51.394;5.454;2023-01-15T08:32:59;8.50;83.10
26821;DHT22;37186;51.394;5.454;2023-01-15T08:36:01;8.50;83.10
26821;DHT22;37186;51.394;5.454;2023-01-15T08:39:03;8.50;83.10
26821;DHT22;37186;51.394;5.454;2023-01-15T08:42:03;8.50;83.10
26821;DHT22;37186;51.394;5.454;2023-01-15T08:45:04;8.50;83.10
26821;DHT22;37186;51.394;5.454;2023-01-15T08:48:05;8.50;82.60
26821;DHT22;37186;51.394;5.454;2023-01-15T08:51:07;8.40;83.10
26821;DHT22;37186;51.394;5.454;2023-01-15T08:54:08;8.40;83.00
26821;DHT22;37186;51.394;5.454;2023-01-15T08:57:09;8.40;83.00
26821;DHT22;37186;51.394;5.454;2023-01-15T09:00:12;8.40;83.20
26821;DHT22;37186;51.394;5.454;2023-01-15T09:03:13;8.40;82.50
26821;DHT22;37186;51.394;5.454;2023-01-15T09:06:13;8.40;82.80
26821;DHT22;37186;51.394;5.454;2023-01-15T09:09:14;8.40;82.50
26821;DHT22;37186;51.394;5.454;2023-01-15T09:12:15;8.40;83.20
26821;DHT22;37186;51.394;5.454;2023-01-15T09:15:16;8.40;83.00
26821;DHT22;37186;51.394;5.454;2023-01-15T09:18:16;8.40;83.30
26821;DHT22;37186;51.394;5.454;2023-01-15T09:21:19;8.40;83.30
26821;DHT22;37186;51.394;5.454;2023-01-15T09:24:19;8.40;83.30
26821;DHT22;37186;51.394;5.454;2023-01-15T09:27:20;8.40;83.30
26821;DHT22;37186;51.394;5.454;2023-01-15T09:30:21;8.40;83.00
26821;DHT22;37186;51.394;5.454;2023-01-15T09:33:21;8.40;83.10
26821;DHT22;37186;51.394;5.454;2023-01-15T09:36:33;8.40;82.90
26821;DHT22;37186;51.394;5.454;2023-01-15T09:39:34;8.40;82.90
26821;DHT22;37186;51.394;5.454;2023-01-15T09:42:45;8.40;83.20
26821;DHT22;37186;51.394;5.454;2023-01-15T09:46:03;8.50;83.00
26821;DHT22;37186;51.394;5.454;2023-01-15T09:55:49;8.50;83.30
26821;DHT22;37186;51.394;5.454;2023-01-15T09:58:51;8.50;82.50
26821;DHT22;37186;51.394;5.454;2023-01-15T10:01:52;8.50;82.80
26821;DHT22;37186;51.394;5.454;2023-01-15T10:05:22;8.50;83.10
26821;DHT22;37186;51.394;5.454;2023-01-15T10:11:40;8.60;82.50
26821;DHT22;37186;51.394;5.454;2023-01-15T10:18:16;8.60;82.00
26821;DHT22;37186;51.394;5.454;2023-01-15T10:21:39;8.70;81.00
26821;DHT22;37186;51.394;5.454;2023-01-15T10:24:53;8.70;82.30
26821;DHT22;37186;51.394;5.454;2023-01-15T10:28:04;8.70;82.10
26821;DHT22;37186;51.394;5.454;2023-01-15T10:31:18;8.70;81.80
26821;DHT22;37186;51.394;5.454;2023-01-15T10:34:57;8.70;82.30
26821;DHT22;37186;51.394;5.454;2023-01-15T10:41:44;8.70;82.10
26821;DHT22;37186;51.394;5.454;2023-01-15T10:45:09;8.80;81.30
26821;DHT22;37186;51.394;5.454;2023-01-15T10:51:40;8.70;81.70
26821;DHT22;37186;51.394;5.454;2023-01-15T10:54:47;8.70;81.70
26821;DHT22;37186;51.394;5.454;2023-01-15T10:58:09;8.80;82.10
26821;DHT22;37186;51.394;5.454;2023-01-15T11:01:15;8.80;81.50
26821;DHT22;37186;51.394;5.454;2023-01-15T11:04:18;8.80;81.00
26821;DHT22;37186;51.394;5.454;2023-01-15T11:07:22;8.80;81.50
26821;DHT22;37186;51.394;5.454;2023-01-15T11:10:44;8.80;80.50
26821;DHT22;37186;51.394;5.454;2023-01-15T11:13:52;8.80;81.50
26821;DHT22;37186;51.394;5.454;2023-01-15T11:17:13;8.80;81.30
26821;DHT22;37186;51.394;5.454;2023-01-15T11:20:34;8.80;81.00
26821;DHT22;37186;51.394;5.454;2023-01-15T11:23:36;8.90;82.10
26821;DHT22;37186;51.394;5.454;2023-01-15T11:26:37;8.80;80.80
26821;DHT22;37186;51.394;5.454;2023-01-15T11:29:37;8.80;81.00
26821;DHT22;37186;51.394;5.454;2023-01-15T11:32:38;8.90;81.30
26821;DHT22;37186;51.394;5.454;2023-01-15T11:35:49;8.90;81.10
26821;DHT22;37186;51.394;5.454;2023-01-15T11:42:47;8.90;80.60
26821;DHT22;37186;51.394;5.454;2023-01-15T11:46:26;8.90;80.80
26821;DHT22;37186;51.394;5.454;2023-01-15T11:49:52;8.90;80.50
26821;DHT22;37186;51.394;5.454;2023-01-15T11:53:21;9.00;81.10
26821;DHT22;37186;51.394;5.454;2023-01-15T11:56:26;8.90;80.80
26821;DHT22;37186;51.394;5.454;2023-01-15T11:59:26;9.00;81.10
26821;DHT22;37186;51.394;5.454;2023-01-15T12:02:37;9.00;80.50
26821;DHT22;37186;51.394;5.454;2023-01-15T12:06:09;9.00;80.30
26821;DHT22;37186;51.394;5.454;2023-01-15T12:09:45;9.00;80.80
26821;DHT22;37186;51.394;5.454;2023-01-15T12:12:59;9.00;81.20
26821;DHT22;37186;51.394;5.454;2023-01-15T12:16:15;9.00;81.20
26821;DHT22;37186;51.394;5.454;2023-01-15T12:19:44;9.00;81.00
26821;DHT22;37186;51.394;5.454;2023-01-15T12:26:28;9.10;79.80
26821;DHT22;37186;51.394;5.454;2023-01-15T12:29:42;9.00;80.90
26821;DHT22;37186;51.394;5.454;2023-01-15T12:32:52;9.10;80.50
26821;DHT22;37186;51.394;5.454;2023-01-15T12:36:13;9.00;80.20
26821;DHT22;37186;51.394;5.454;2023-01-15T12:39:23;9.00;80.10
26821;DHT22;37186;51.394;5.454;2023-01-15T12:42:26;9.00;80.70
26821;DHT22;37186;51.394;5.454;2023-01-15T12:45:50;9.00;80.30
26821;DHT22;37186;51.394;5.454;2023-01-15T12:49:14;9.00;80.20
26821;DHT22;37186;51.394;5.454;2023-01-15T12:52:24;9.10;80.40
26821;DHT22;37186;51.394;5.454;2023-01-15T12:55:29;9.00;80.60
26821;DHT22;37186;51.394;5.454;2023-01-15T12:58:53;9.00;80.50
26821;DHT22;37186;51.394;5.454;2023-01-15T13:02:10;9.00;80.30
26821;DHT22;37186;51.394;5.454;2023-01-15T13:05:31;9.00;80.00
26821;DHT22;37186;51.394;5.454;2023-01-15T13:09:00;9.10;79.90
26821;DHT22;37186;51.394;5.454;2023-01-15T13:11:58;9.10;79.90
26821;DHT22;37186;51.394;5.454;2023-01-15T13:14:59;9.10;80.30
26821;DHT22;37186;51.394;5.454;2023-01-15T13:18:34;9.10;80.40
26821;DHT22;37186;51.394;5.454;2023-01-15T13:21:37;9.10;80.40
26821;DHT22;37186;51.394;5.454;2023-01-15T13:25:03;9.10;80.70
26821;DHT22;37186;51.394;5.454;2023-01-15T13:28:31;9.10;80.40
26821;DHT22;37186;51.394;5.454;2023-01-15T13:35:29;9.20;80.90
26821;DHT22;37186;51.394;5.454;2023-01-15T13:38:38;9.20;80.60
26821;DHT22;37186;51.394;5.454;2023-01-15T13:41:40;9.20;80.10
26821;DHT22;37186;51.394;5.454;2023-01-15T13:45:50;9.20;80.10
26821;DHT22;37186;51.394;5.454;2023-01-15T13:48:39;9.20;80.40
26821;DHT22;37186;51.394;5.454;2023-01-15T13:51:42;9.30;80.30
26821;DHT22;37186;51.394;5.454;2023-01-15T13:54:46;9.30;80.90
26821;DHT22;37186;51.394;5.454;2023-01-15T13:57:46;9.30;80.20
26821;DHT22;37186;51.394;5.454;2023-01-15T14:07:20;9.40;80.80
26821;DHT22;37186;51.394;5.454;2023-01-15T14:14:08;9.50;80.30
26821;DHT22;37186;51.394;5.454;2023-01-15T14:24:01;9.50;80.40
26821;DHT22;37186;51.394;5.454;2023-01-15T14:30:56;9.50;80.30
26821;DHT22;37186;51.394;5.454;2023-01-15T14:37:03;9.50;80.30
26821;DHT22;37186;51.394;5.454;2023-01-15T14:40:05;9.50;80.70
26821;DHT22;37186;51.394;5.454;2023-01-15T14:43:13;9.50;79.80
26821;DHT22;37186;51.394;5.454;2023-01-15T14:46:38;9.50;80.20
26821;DHT22;37186;51.394;5.454;2023-01-15T14:49:43;9.50;80.20
26821;DHT22;37186;51.394;5.454;2023-01-15T14:52:54;9.50;79.40
26821;DHT22;37186;51.394;5.454;2023-01-15T14:59:26;9.40;79.80
26821;DHT22;37186;51.394;5.454;2023-01-15T15:02:53;9.40;79.50
26821;DHT22;37186;51.394;5.454;2023-01-15T15:05:54;9.40;79.30
26821;DHT22;37186;51.394;5.454;2023-01-15T15:09:00;9.40;80.00
26821;DHT22;37186;51.394;5.454;2023-01-15T15:12:26;9.40;80.00
26821;DHT22;37186;51.394;5.454;2023-01-15T15:15:44;9.40;79.80
26821;DHT22;37186;51.394;5.454;2023-01-15T15:18:56;9.40;79.00
26821;DHT22;37186;51.394;5.454;2023-01-15T15:22:04;9.40;79.50
26821;DHT22;37186;51.394;5.454;2023-01-15T15:25:09;9.30;79.90
26821;DHT22;37186;51.394;5.454;2023-01-15T15:28:11;9.30;79.90
26821;DHT22;37186;51.394;5.454;2023-01-15T15:31:11;9.30;79.30
26821;DHT22;37186;51.394;5.454;2023-01-15T15:34:25;9.30;79.90
26821;DHT22;37186;51.394;5.454;2023-01-15T15:37:27;9.30;79.80
26821;DHT22;37186;51.394;5.454;2023-01-15T15:40:35;9.30;79.60
26821;DHT22;37186;51.394;5.454;2023-01-15T15:43:43;9.30;79.40
26821;DHT22;37186;51.394;5.454;2023-01-15T15:47:20;9.30;80.00
26821;DHT22;37186;51.394;5.454;2023-01-15T15:50:41;9.30;80.00
26821;DHT22;37186;51.394;5.454;2023-01-15T15:53:41;9.30;79.50
26821;DHT22;37186;51.394;5.454;2023-01-15T15:56:59;9.30;79.30
26821;DHT22;37186;51.394;5.454;2023-01-15T16:00:00;9.20;79.80
26821;DHT22;37186;51.394;5.454;2023-01-15T16:03:23;9.20;79.80
26821;DHT22;37186;51.394;5.454;2023-01-15T16:06:26;9.20;79.90
26821;DHT22;37186;51.394;5.454;2023-01-15T16:09:27;9.20;79.80
26821;DHT22;37186;51.394;5.454;2023-01-15T16:12:30;9.20;80.00
26821;DHT22;37186;51.394;5.454;2023-01-15T16:15:38;9.10;80.10
26821;DHT22;37186;51.394;5.454;2023-01-15T16:18:50;9.10;80.30
26821;DHT22;37186;51.394;5.454;2023-01-15T16:21:52;9.20;79.90
26821;DHT22;37186;51.394;5.454;2023-01-15T16:24:55;9.10;79.90
26821;DHT22;37186;51.394;5.454;2023-01-15T16:27:56;9.10;80.30
26821;DHT22;37186;51.394;5.454;2023-01-15T16:30:59;9.10;80.10
26821;DHT22;37186;51.394;5.454;2023-01-15T16:34:02;9.10;80.50
26821;DHT22;37186;51.394;5.454;2023-01-15T16:37:10;9.10;80.40
26821;DHT22;37186;51.394;5.454;2023-01-15T16:40:31;9.10;80.40
26821;DHT22;37186;51.394;5.454;2023-01-15T16:43:55;9.10;80.30
26821;DHT22;37186;51.394;5.454;2023-01-15T16:46:58;9.10;80.00
26821;DHT22;37186;51.394;5.454;2023-01-15T16:50:23;9.10;80.20
26821;DHT22;37186;51.394;5.454;2023-01-15T16:53:38;9.10;79.90
26821;DHT22;37186;51.394;5.454;2023-01-15T16:59:52;9.00;80.00
26821;DHT22;37186;51.394;5.454;2023-01-15T17:02:53;9.00;80.10
26821;DHT22;37186;51.394;5.454;2023-01-15T17:05:57;9.00;79.60
26821;DHT22;37186;51.394;5.454;2023-01-15T17:09:05;9.00;80.00
26821;DHT22;37186;51.394;5.454;2023-01-15T17:12:08;9.00;80.10
26821;DHT22;37186;51.394;5.454;2023-01-15T17:18:25;8.90;80.00
26821;DHT22;37186;51.394;5.454;2023-01-15T17:21:26;8.90;79.80
26821;DHT22;37186;51.394;5.454;2023-01-15T17:24:28;8.90;79.90
26821;DHT22;37186;51.394;5.454;2023-01-15T17:27:29;8.80;79.80
26821;DHT22;37186;51.394;5.454;2023-01-15T17:30:31;8.80;80.00
26821;DHT22;37186;51.394;5.454;2023-01-15T17:33:32;8.80;79.40
26821;DHT22;37186;51.394;5.454;2023-01-15T17:36:32;8.80;79.80
26821;DHT22;37186;51.394;5.454;2023-01-15T17:39:33;8.80;79.80
26821;DHT22;37186;51.394;5.454;2023-01-15T17:42:34;8.80;80.00
26821;DHT22;37186;51.394;5.454;2023-01-15T17:45:34;8.70;80.20
26821;DHT22;37186;51.394;5.454;2023-01-15T17:48:35;8.70;80.20
26821;DHT22;37186;51.394;5.454;2023-01-15T17:51:36;8.70;80.70
26821;DHT22;37186;51.394;5.454;2023-01-15T17:54:36;8.70;79.90
26821;DHT22;37186;51.394;5.454;2023-01-15T17:57:55;8.70;79.70
26821;DHT22;37186;51.394;5.454;2023-01-15T18:01:25;8.70;79.60
26821;DHT22;37186;51.394;5.454;2023-01-15T18:04:48;8.70;80.10
26821;DHT22;37186;51.394;5.454;2023-01-15T18:08:09;8.70;80.20
26821;DHT22;37186;51.394;5.454;2023-01-15T18:11:11;8.70;80.20
26821;DHT22;37186;51.394;5.454;2023-01-15T18:14:12;8.60;80.00
26821;DHT22;37186;51.394;5.454;2023-01-15T18:17:13;8.60;80.20
26821;DHT22;37186;51.394;5.454;2023-01-15T18:20:13;8.60;80.10
26821;DHT22;37186;51.394;5.454;2023-01-15T18:23:14;8.60;80.50
26821;DHT22;37186;51.394;5.454;2023-01-15T18:26:14;8.60;80.50
26821;DHT22;37186;51.394;5.454;2023-01-15T18:29:15;8.60;80.50
26821;DHT22;37186;51.394;5.454;2023-01-15T18:32:16;8.60;80.50
26821;DHT22;37186;51.394;5.454;2023-01-15T18:35:16;8.50;80.50
26821;DHT22;37186;51.394;5.454;2023-01-15T18:38:17;8.50;80.60
26821;DHT22;37186;51.394;5.454;2023-01-15T18:41:22;8.50;80.60
26821;DHT22;37186;51.394;5.454;2023-01-15T18:44:35;8.50;80.60
26821;DHT22;37186;51.394;5.454;2023-01-15T18:47:54;8.50;80.50
26821;DHT22;37186;51.394;5.454;2023-01-15T18:50:55;8.50;80.70
26821;DHT22;37186;51.394;5.454;2023-01-15T18:53:55;8.50;80.60
26821;DHT22;37186;51.394;5.454;2023-01-15T18:56:56;8.50;80.60
26821;DHT22;37186;51.394;5.454;2023-01-15T18:59:56;8.40;80.60
26821;DHT22;37186;51.394;5.454;2023-01-15T19:02:57;8.40;80.80
26821;DHT22;37186;51.394;5.454;2023-01-15T19:06:08;8.40;80.50
26821;DHT22;37186;51.394;5.454;2023-01-15T19:09:12;8.40;80.60
26821;DHT22;37186;51.394;5.454;2023-01-15T19:12:15;8.40;80.50
26821;DHT22;37186;51.394;5.454;2023-01-15T19:15:18;8.40;80.80
26821;DHT22;37186;51.394;5.454;2023-01-15T19:18:37;8.40;80.80
26821;DHT22;37186;51.394;5.454;2023-01-15T19:21:51;8.30;80.90
26821;DHT22;37186;51.394;5.454;2023-01-15T19:25:11;8.40;81.00
26821;DHT22;37186;51.394;5.454;2023-01-15T19:28:15;8.30;81.00
26821;DHT22;37186;51.394;5.454;2023-01-15T19:31:16;8.40;81.00
26821;DHT22;37186;51.394;5.454;2023-01-15T19:34:36;8.40;81.10
26821;DHT22;37186;51.394;5.454;2023-01-15T19:37:36;8.40;81.10
26821;DHT22;37186;51.394;5.454;2023-01-15T19:40:39;8.40;81.30
26821;DHT22;37186;51.394;5.454;2023-01-15T19:43:39;8.40;81.30
26821;DHT22;37186;51.394;5.454;2023-01-15T19:46:58;8.40;81.40
26821;DHT22;37186;51.394;5.454;2023-01-15T19:53:36;8.40;81.40
26821;DHT22;37186;51.394;5.454;2023-01-15T19:56:39;8.40;81.40
26821;DHT22;37186;51.394;5.454;2023-01-15T19:59:46;8.40;81.40
26821;DHT22;37186;51.394;5.454;2023-01-15T20:02:46;8.40;81.40
26821;DHT22;37186;51.394;5.454;2023-01-15T20:05:47;8.40;81.40
26821;DHT22;37186;51.394;5.454;2023-01-15T20:08:48;8.40;81.40
26821;DHT22;37186;51.394;5.454;2023-01-15T20:11:49;8.40;81.40
26821;DHT22;37186;51.394;5.454;2023-01-15T20:15:08;8.40;81.30
26821;DHT22;37186;51.394;5.454;2023-01-15T20:18:09;8.30;81.30
26821;DHT22;37186;51.394;5.454;2023-01-15T20:21:09;8.40;81.30
26821;DHT22;37186;51.394;5.454;2023-01-15T20:24:14;8.30;81.10
26821;DHT22;37186;51.394;5.454;2023-01-15T20:27:15;8.30;81.10
26821;DHT22;37186;51.394;5.454;2023-01-15T20:30:16;8.30;81.10
26821;DHT22;37186;51.394;5.454;2023-01-15T20:33:20;8.30;81.00
26821;DHT22;37186;51.394;5.454;2023-01-15T20:36:21;8.30;81.10
26821;DHT22;37186;51.394;5.454;2023-01-15T20:39:22;8.30;81.30
26821;DHT22;37186;51.394;5.454;2023-01-15T20:42:23;8.30;81.20
26821;DHT22;37186;51.394;5.454;2023-01-15T20:45:42;8.30;81.30
26821;DHT22;37186;51.394;5.454;2023-01-15T20:48:42;8.30;81.40
26821;DHT22;37186;51.394;5.454;2023-01-15T20:52:01;8.30;81.40
26821;DHT22;37186;51.394;5.454;2023-01-15T20:55:05;8.40;81.40
26821;DHT22;37186;51.394;5.454;2023-01-15T20:58:07;8.40;81.40
26821;DHT22;37186;51.394;5.454;2023-01-15T21:01:08;8.40;81.40
26821;DHT22;37186;51.394;5.454;2023-01-15T21:04:10;8.40;81.40
26821;DHT22;37186;51.394;5.454;2023-01-15T21:07:12;8.40;81.40
26821;DHT22;37186;51.394;5.454;2023-01-15T21:10:13;8.40;81.50
26821;DHT22;37186;51.394;5.454;2023-01-15T21:13:13;8.40;81.40
26821;DHT22;37186;51.394;5.454;2023-01-15T21:16:14;8.40;81.40
26821;DHT22;37186;51.394;5.454;2023-01-15T21:19:15;8.40;81.40
26821;DHT22;37186;51.394;5.454;2023-01-15T21:22:16;8.40;81.50